Garden City, KS

6:33 PM CST en Diciembre 18, 2014 (GMT -0600)
N0KQX | Change Station
CLOSE
Current Station
Estación meteorológica personal
Location: Garden City, KS
Altura: 2839 ft
Estaciones meteorológicas cercanas

Alt 2839 ft 37.97 °N, 100.85 °W | Updated 3 seconds ago

Nublado
Nublado
35.4 ° F
Sensación térmica 35 ° F
N
0.0
Viento Variable Viento desde SE
Gusts 0.0 mph

Hoy
Alta -- | Baja -- ° F
--% Posibilidad de precipitaciones
Ayer
Alta -- | Baja -- ° F
Precip. -- pul
7:54 AM 5:26 PM
Creciente menguante, 11% visible
Presión 30.17 pul
Visibilidad 8.0 Millas
Nubes Nublado 1200 ft
Vientos helados 35 ° F
Punto de rocío 32 ° F
Humedad 89%
Precipitaciones 0.07 pul
Espesor de la nieve No disponible.
UV 0 de una escala de 12
Polen .10 de una escala de 12
Calidad del aire No disponible.
Flu Activity No disponible.
METAR KGCK 182354Z 16003KT 8SM OVC012 01/M01 A3011 RMK AO2 SLP216 T00111006 10011 21011 51003

More Conditions Fewer Conditions

Presión 30.17 pul
Visibilidad 8.0 Millas
Nubes Nublado 1200 ft
Vientos helados 35 ° F
Punto de rocío 32 ° F
Humedad 89%
Precipitaciones 0.07 pul
Espesor de la nieve No disponible.
UV 0 de una escala de 12
Polen .10 de una escala de 12
Calidad del aire No disponible.
Flu Activity No disponible.
METAR KGCK 182354Z 16003KT 8SM OVC012 01/M01 A3011 RMK AO2 SLP216 T00111006 10011 21011 51003

More Conditions Fewer Conditions

10-Day Weather Forecast

Almanac

Astronomía

Dec. 18, 2014 Salida Puesta
Hora real
Crepúsculo civil
Crepúsculo náutico
Crepúsculo astronómico
Luna
Horas de luz
Horas de luz
Tomorrow will be .
, % of the Moon is Illuminated

Extremos de hoy

Máximos del estado Bajos del estado

Community

WunderPhotos

Upload Photos

1,779,016 ¡fotos cargadas!

WunderBlogs® & News

Nearby

Calidad del aire

  Calidad del aire Índice AQ Contaminante
Not available.

Grosos de nieve

Estación Profundido Altura

Actividad de terremotos

Ciudad Distance Mag. Tiempo y dato
Magnitud mínima muestra es 2,5.

Temperaturas de aguas costeras

Lugar Temperatura

Estaciones meteorológicas cercanas